createdAt,value
2023-03-26T00:18:46.629Z,8.48
2023-03-26T00:23:06.735Z,8.46
2023-03-26T00:27:36.222Z,8.43
2023-03-26T00:32:05.627Z,8.42
2023-03-26T00:58:01.366Z,8.30
2023-03-26T01:02:30.798Z,8.27
2023-03-26T01:07:03.177Z,8.24
2023-03-26T01:11:32.246Z,8.21
2023-03-26T01:29:32.288Z,8.13
2023-03-26T01:34:05.832Z,8.08
2023-03-26T01:38:49.329Z,8.05
2023-03-26T01:43:19.804Z,8.02
2023-03-26T02:28:34.290Z,7.97
2023-03-26T02:32:54.188Z,7.94
2023-03-26T02:37:24.280Z,7.91
2023-03-26T02:41:53.718Z,7.88
2023-03-26T02:46:12.063Z,7.87
2023-03-26T02:50:26.543Z,7.84
2023-03-26T02:54:35.704Z,7.84
2023-03-26T03:03:05.601Z,7.88
2023-03-26T03:07:34.921Z,7.87
2023-03-26T03:12:04.733Z,7.87
2023-03-26T03:33:58.580Z,7.89
2023-03-26T03:38:09.223Z,7.88
2023-03-26T03:42:17.864Z,7.85
2023-03-26T04:03:08.209Z,7.83
2023-03-26T04:07:22.445Z,7.80
2023-03-26T04:11:52.911Z,7.79
2023-03-26T04:29:01.063Z,7.79
2023-03-26T04:33:14.185Z,7.77
2023-03-26T04:37:12.461Z,7.75
2023-03-26T04:41:11.138Z,7.74
2023-03-26T04:45:49.806Z,7.69
2023-03-26T04:50:07.513Z,7.64
2023-03-26T04:54:30.384Z,7.58
2023-03-26T04:58:48.401Z,7.51
2023-03-26T05:03:01.351Z,7.49
2023-03-26T05:06:28.067Z,7.51
2023-03-26T05:27:03.662Z,7.54
2023-03-26T05:31:01.597Z,7.52
2023-03-26T05:35:02.647Z,7.48
2023-03-26T05:39:20.697Z,7.47
2023-03-26T05:43:58.559Z,7.49
2023-03-26T05:48:01.951Z,7.56
2023-03-26T05:52:21.458Z,7.61
2023-03-26T05:56:39.311Z,7.64
2023-03-26T06:01:14.823Z,7.68
2023-03-26T06:09:59.438Z,7.76
2023-03-26T06:53:23.784Z,8.86
2023-03-26T06:58:02.272Z,9.21
2023-03-26T07:02:13.142Z,9.29
2023-03-26T07:06:40.532Z,9.40
2023-03-26T07:10:49.364Z,9.41
2023-03-26T07:15:22.861Z,9.43
2023-03-26T07:51:54.633Z,9.70
2023-03-26T07:56:22.674Z,9.76
2023-03-26T08:00:44.742Z,9.77
2023-03-26T08:05:10.838Z,9.91
2023-03-26T08:09:20.732Z,10.07
2023-03-26T08:36:14.009Z,11.14
2023-03-26T08:40:43.186Z,11.41
2023-03-26T08:44:52.034Z,11.59
2023-03-26T08:49:22.316Z,11.67
2023-03-26T08:53:44.013Z,11.68
2023-03-26T08:58:24.409Z,11.67
2023-03-26T09:02:48.730Z,11.54
2023-03-26T09:33:22.694Z,11.07
2023-03-26T09:37:56.079Z,11.17
2023-03-26T09:42:47.794Z,10.93
2023-03-26T09:47:32.360Z,10.67
2023-03-26T09:52:16.012Z,10.85
2023-03-26T09:56:52.635Z,10.91
2023-03-26T10:01:39.169Z,10.85
2023-03-26T10:18:59.893Z,11.07
2023-03-26T10:23:24.641Z,11.00
2023-03-26T10:28:10.712Z,10.97
2023-03-26T11:35:09.266Z,12.10
2023-03-26T11:39:27.294Z,11.94
2023-03-26T11:43:51.333Z,11.77
2023-03-26T12:14:07.255Z,12.52
2023-03-26T12:18:16.030Z,12.43
2023-03-26T12:22:47.949Z,12.13
2023-03-26T12:27:09.155Z,11.91
2023-03-26T12:31:45.034Z,12.24
2023-03-26T12:36:08.606Z,12.78
2023-03-26T13:19:17.805Z,12.73
2023-03-26T13:23:26.187Z,12.72
2023-03-26T13:27:57.137Z,13.57
2023-03-26T13:32:27.530Z,13.49
2023-03-26T13:36:27.108Z,13.41
2023-03-26T13:40:36.353Z,13.11
2023-03-26T13:45:04.645Z,13.14
2023-03-26T13:49:28.044Z,12.77
2023-03-26T13:53:43.011Z,13.03
2023-03-26T13:58:17.499Z,13.55
2023-03-26T14:02:37.023Z,13.48
2023-03-26T14:17:51.431Z,13.68
2023-03-26T14:21:23.197Z,13.61
2023-03-26T14:25:25.413Z,13.60
2023-03-26T14:29:25.094Z,13.77
2023-03-26T14:33:14.124Z,14.00
2023-03-26T14:37:43.044Z,14.23
2023-03-26T14:42:21.006Z,14.62
2023-03-26T14:46:59.976Z,14.75
2023-03-26T15:27:39.722Z,11.94
2023-03-26T15:32:21.258Z,11.58
2023-03-26T15:36:53.179Z,11.18
2023-03-26T15:41:23.424Z,10.76
2023-03-26T15:46:11.529Z,10.43
2023-03-26T15:50:33.382Z,10.14
2023-03-26T15:55:04.178Z,10.02
2023-03-26T16:26:25.699Z,8.90
2023-03-26T16:30:39.148Z,8.83
2023-03-26T16:34:48.942Z,8.77
2023-03-26T16:39:27.313Z,8.65
2023-03-26T16:44:06.259Z,8.51
2023-03-26T16:48:30.655Z,8.36
2023-03-26T17:41:28.755Z,6.60
2023-03-26T17:46:03.922Z,6.45
2023-03-26T17:49:53.812Z,6.34
2023-03-26T18:25:12.946Z,5.43
2023-03-26T18:29:31.149Z,5.34
2023-03-26T18:34:03.132Z,5.24
2023-03-26T18:38:13.047Z,5.11
2023-03-26T18:59:35.147Z,4.72
2023-03-26T19:02:50.227Z,4.63
2023-03-26T19:06:53.018Z,4.53
2023-03-26T19:11:02.604Z,4.46
2023-03-26T19:15:28.949Z,4.39
2023-03-26T19:37:36.689Z,4.21
2023-03-26T19:42:06.224Z,4.16
2023-03-26T19:46:53.519Z,4.11
2023-03-26T19:51:36.312Z,4.05
2023-03-26T20:00:05.571Z,3.99
2023-03-26T20:04:32.529Z,3.92
2023-03-26T20:08:50.284Z,3.86
2023-03-26T20:13:20.720Z,3.79
2023-03-26T20:17:51.666Z,3.64
2023-03-26T20:39:57.640Z,3.31
2023-03-26T20:44:27.061Z,3.31
2023-03-26T20:48:56.766Z,3.27
2023-03-26T21:06:14.811Z,3.08
2023-03-26T21:10:44.971Z,3.03
2023-03-26T21:15:23.783Z,3.06
2023-03-26T21:29:05.074Z,3.37
2023-03-26T21:33:11.881Z,3.44
2023-03-26T21:37:34.084Z,3.49
2023-03-26T21:42:05.808Z,3.50
2023-03-26T22:13:13.733Z,3.31
2023-03-26T22:17:32.651Z,3.26
2023-03-26T22:22:01.594Z,3.18
2023-03-26T22:26:31.332Z,3.12
2023-03-26T22:52:33.547Z,2.81
2023-03-26T22:56:52.173Z,2.74
2023-03-26T23:01:10.530Z,2.69
2023-03-26T23:22:14.430Z,2.65
2023-03-26T23:26:27.262Z,2.70
2023-03-26T23:30:45.972Z,2.73
2023-03-26T23:35:18.452Z,2.73
2023-03-26T23:57:01.659Z,2.60
